Time;durP1;ratioP1;P1;durP2;ratioP2;P2;SDS_P1;SDS_P2;PMS_P1;PMS_P2;Temp;Humidity;BMP_temperature;BMP_pressure;BME280_temperature;BME280_humidity;BME280_pressure;Samples;Min_cycle;Max_cycle;Signal;HPM_P1;HPM_P2
2022/07/24 00:01:17;;;;;;;1.50;0.90;;;15.70;99.90;;;;;;5013193;28;20350;-73
2022/07/24 00:03:43;;;;;;;1.63;1.20;;;15.70;99.90;;;;;;5012800;28;20250;-73
2022/07/24 00:06:08;;;;;;;1.00;0.90;;;15.60;99.90;;;;;;5012926;28;20176;-73
2022/07/24 00:08:34;;;;;;;1.20;1.10;;;15.60;99.90;;;;;;5011389;28;20541;-72
2022/07/24 00:11:00;;;;;;;1.43;0.97;;;15.60;99.90;;;;;;5012001;28;20279;-73
2022/07/24 00:13:25;;;;;;;2.93;1.53;;;15.60;99.90;;;;;;5012846;28;20181;-72
2022/07/24 00:15:51;;;;;;;1.97;1.43;;;15.50;99.90;;;;;;5012654;28;20168;-72
2022/07/24 00:18:17;;;;;;;1.97;1.13;;;15.50;99.90;;;;;;5012983;28;20546;-73
2022/07/24 00:20:42;;;;;;;1.53;1.43;;;15.50;99.90;;;;;;5012725;28;20538;-73
2022/07/24 00:23:08;;;;;;;1.83;1.40;;;15.40;99.90;;;;;;5012917;28;20180;-74
2022/07/24 00:25:34;;;;;;;2.13;1.37;;;15.30;99.90;;;;;;5012968;28;20184;-74
2022/07/24 00:27:59;;;;;;;1.87;1.37;;;15.30;99.90;;;;;;5013372;28;20176;-74
2022/07/24 00:30:25;;;;;;;1.50;1.40;;;15.20;99.90;;;;;;5012829;28;20581;-74
2022/07/24 00:32:50;;;;;;;1.23;1.13;;;15.20;99.90;;;;;;5012853;28;20240;-74
2022/07/24 00:35:17;;;;;;;1.57;1.47;;;15.20;99.90;;;;;;5012798;28;20165;-73
2022/07/24 00:37:43;;;;;;;1.30;1.20;;;15.10;99.90;;;;;;5012754;28;20163;-73
2022/07/24 00:40:09;;;;;;;1.20;1.10;;;15.10;99.90;;;;;;5012753;28;20773;-74
2022/07/24 00:42:34;;;;;;;1.23;1.00;;;15.10;99.90;;;;;;5012386;28;20196;-74
2022/07/24 00:45:00;;;;;;;1.50;1.20;;;15.20;99.90;;;;;;5012468;28;20194;-73
2022/07/24 00:47:25;;;;;;;2.83;1.20;;;15.10;99.90;;;;;;5012908;28;20183;-73
2022/07/24 00:49:51;;;;;;;1.40;1.30;;;15.10;99.90;;;;;;5011623;28;20256;-73
2022/07/24 00:52:17;;;;;;;1.57;1.47;;;15.10;99.90;;;;;;5011503;28;20195;-73
2022/07/24 00:54:43;;;;;;;1.70;1.10;;;15.00;99.90;;;;;;5011917;28;20161;-73
2022/07/24 00:57:08;;;;;;;5.70;1.47;;;15.00;99.90;;;;;;5011920;28;20627;-74
2022/07/24 00:59:34;;;;;;;1.27;1.10;;;15.00;99.90;;;;;;5011874;28;20415;-73
2022/07/24 01:02:00;;;;;;;1.60;1.10;;;15.00;99.90;;;;;;5011877;28;20204;-72
2022/07/24 01:04:25;;;;;;;1.37;1.27;;;14.90;99.90;;;;;;5034367;23;20719;-71
2022/07/24 01:06:51;;;;;;;2.20;1.43;;;14.90;99.90;;;;;;5012229;28;20255;-70
2022/07/24 01:09:17;;;;;;;2.50;1.57;;;15.10;99.90;;;;;;5012533;28;20164;-69
2022/07/24 01:11:43;;;;;;;2.13;1.73;;;15.10;99.90;;;;;;5011039;28;20208;-70
2022/07/24 01:14:11;;;;;;;1.90;1.73;;;15.20;99.90;;;;;;5012179;28;20192;-70
2022/07/24 01:16:38;;;;;;;2.70;2.10;;;15.10;99.90;;;;;;5011975;28;20426;-70
2022/07/24 01:19:04;;;;;;;3.53;2.17;;;15.00;99.90;;;;;;5012239;28;20430;-71
2022/07/24 01:21:29;;;;;;;2.97;2.30;;;15.00;99.90;;;;;;5012164;28;20415;-70
2022/07/24 01:23:55;;;;;;;5.23;2.87;;;14.90;99.90;;;;;;5012252;28;20219;-71
2022/07/24 01:26:21;;;;;;;2.20;2.00;;;15.00;99.90;;;;;;5012402;28;20172;-72
2022/07/24 01:28:46;;;;;;;1.73;1.10;;;15.00;99.90;;;;;;5012507;28;20180;-70
2022/07/24 01:31:12;;;;;;;2.50;1.83;;;14.90;99.90;;;;;;5011973;28;20278;-70
2022/07/24 01:33:37;;;;;;;2.00;1.80;;;15.00;99.90;;;;;;5012034;28;20710;-71
2022/07/24 01:36:03;;;;;;;2.30;2.10;;;14.90;99.90;;;;;;5012041;28;20164;-71
2022/07/24 01:38:28;;;;;;;2.57;2.10;;;14.90;99.90;;;;;;5012416;28;20180;-71
2022/07/24 01:40:54;;;;;;;3.10;1.70;;;14.80;99.90;;;;;;5012424;28;20551;-72
2022/07/24 01:43:20;;;;;;;2.47;1.97;;;14.70;99.90;;;;;;5012045;28;20283;-72
2022/07/24 01:45:45;;;;;;;2.53;1.50;;;14.70;99.90;;;;;;5011922;28;20619;-72
2022/07/24 01:48:11;;;;;;;2.30;1.93;;;14.70;99.90;;;;;;5011963;28;20260;-71
2022/07/24 01:50:37;;;;;;;2.00;1.90;;;14.70;99.90;;;;;;5011696;28;20303;-72
2022/07/24 01:53:03;;;;;;;1.63;1.53;;;14.70;99.90;;;;;;5011981;28;20200;-72
2022/07/24 01:55:30;;;;;;;1.50;1.40;;;14.70;99.90;;;;;;5011857;28;20176;-71
2022/07/24 01:57:55;;;;;;;1.97;1.40;;;14.70;99.90;;;;;;5011983;28;20167;-71
2022/07/24 02:00:21;;;;;;;1.60;1.50;;;14.80;99.90;;;;;;5011584;28;20406;-71
2022/07/24 02:02:46;;;;;;;2.03;1.70;;;14.70;99.90;;;;;;5013763;28;20199;-72
2022/07/24 02:05:13;;;;;;;3.17;1.43;;;14.70;99.90;;;;;;5015217;28;20704;-71
2022/07/24 02:07:43;;;;;;;1.77;1.30;;;14.70;99.90;;;;;;5015336;28;20169;-72
2022/07/24 02:10:10;;;;;;;2.77;1.33;;;14.70;99.90;;;;;;5014974;28;20454;-71
2022/07/24 02:12:36;;;;;;;2.57;1.23;;;14.70;99.90;;;;;;5015179;28;20418;-72
2022/07/24 02:15:02;;;;;;;1.43;1.23;;;14.70;99.90;;;;;;5015149;28;20766;-70
2022/07/24 02:17:28;;;;;;;2.27;1.10;;;14.70;99.90;;;;;;5015300;28;20161;-72
2022/07/24 02:19:53;;;;;;;1.70;1.00;;;14.70;99.90;;;;;;5015196;28;20434;-71
2022/07/24 02:22:19;;;;;;;1.70;1.60;;;14.60;99.90;;;;;;5014025;28;20211;-71
2022/07/24 02:24:44;;;;;;;1.63;1.20;;;14.50;99.90;;;;;;5014965;28;20219;-71
2022/07/24 02:27:10;;;;;;;1.97;1.30;;;14.50;99.90;;;;;;5014964;28;20171;-71
2022/07/24 02:29:35;;;;;;;1.40;1.30;;;14.40;99.90;;;;;;5015128;28;20264;-71
2022/07/24 02:32:01;;;;;;;1.40;1.30;;;14.50;99.90;;;;;;5014677;28;20199;-72
2022/07/24 02:34:27;;;;;;;2.03;1.40;;;14.50;99.90;;;;;;5014520;28;20191;-72
2022/07/24 02:36:52;;;;;;;1.40;1.30;;;14.40;99.90;;;;;;5014589;28;20164;-72
2022/07/24 02:39:18;;;;;;;1.63;1.37;;;14.30;99.90;;;;;;5014423;28;20164;-71
2022/07/24 02:41:43;;;;;;;1.53;1.20;;;14.40;99.90;;;;;;5014481;28;20172;-72
2022/07/24 02:44:10;;;;;;;1.30;1.17;;;14.40;99.90;;;;;;5014192;28;20195;-72
2022/07/24 02:46:36;;;;;;;1.77;1.20;;;14.30;99.90;;;;;;5014546;28;20660;-73
2022/07/24 02:49:01;;;;;;;1.53;1.43;;;14.20;99.90;;;;;;5015760;28;20438;-72
2022/07/24 02:51:27;;;;;;;2.80;1.20;;;14.20;99.90;;;;;;5015817;28;20273;-71
2022/07/24 02:53:52;;;;;;;1.50;1.40;;;14.20;99.90;;;;;;5015371;28;20689;-71
2022/07/24 02:56:18;;;;;;;1.90;1.70;;;14.10;99.90;;;;;;5015257;28;20176;-71
2022/07/24 02:58:43;;;;;;;1.90;1.53;;;14.20;99.90;;;;;;5014352;28;20168;-71
2022/07/24 03:01:09;;;;;;;3.07;1.83;;;14.20;99.90;;;;;;5014233;28;20539;-71
2022/07/24 03:03:35;;;;;;;2.27;1.40;;;14.20;99.90;;;;;;5013915;28;20318;-70
2022/07/24 03:06:01;;;;;;;1.67;1.57;;;14.20;99.90;;;;;;5014117;28;20491;-71
2022/07/24 03:08:26;;;;;;;1.70;1.37;;;14.20;99.90;;;;;;5014010;28;20211;-71
2022/07/24 03:10:52;;;;;;;1.30;1.20;;;14.10;99.90;;;;;;5013911;28;20199;-72
2022/07/24 03:13:18;;;;;;;1.47;1.37;;;14.20;99.90;;;;;;5013129;28;20191;-71
2022/07/24 03:15:43;;;;;;;1.30;1.20;;;14.20;99.90;;;;;;5013911;28;20175;-72
2022/07/24 03:18:09;;;;;;;1.63;1.53;;;14.10;99.90;;;;;;5014036;28;20176;-72
2022/07/24 03:20:35;;;;;;;1.80;1.60;;;14.10;99.90;;;;;;5013959;28;20184;-72
2022/07/24 03:23:00;;;;;;;1.40;1.30;;;14.10;99.90;;;;;;5013698;28;20512;-71
2022/07/24 03:25:26;;;;;;;1.70;1.57;;;14.10;99.90;;;;;;5013568;28;20184;-71
2022/07/24 03:27:52;;;;;;;1.77;1.63;;;14.10;99.90;;;;;;5013540;28;20202;-71
2022/07/24 03:30:19;;;;;;;1.83;1.50;;;14.10;99.90;;;;;;5013447;28;20203;-71
2022/07/24 03:32:45;;;;;;;1.80;1.70;;;14.20;99.90;;;;;;5013417;28;20198;-71
2022/07/24 03:35:10;;;;;;;6.93;1.40;;;14.10;99.90;;;;;;5013522;28;20427;-71
2022/07/24 03:37:36;;;;;;;1.60;1.50;;;14.00;99.90;;;;;;5013541;28;20415;-71
2022/07/24 03:40:03;;;;;;;1.90;1.50;;;14.10;99.90;;;;;;5013445;28;20572;-70
2022/07/24 03:42:28;;;;;;;2.43;1.50;;;14.20;99.90;;;;;;5013463;28;20177;-70
2022/07/24 03:44:54;;;;;;;2.10;1.63;;;14.10;99.90;;;;;;5013264;28;20921;-71
2022/07/24 03:47:20;;;;;;;1.77;1.67;;;14.10;99.90;;;;;;5013487;28;20550;-70
2022/07/24 03:49:45;;;;;;;1.90;1.40;;;14.20;99.90;;;;;;5013379;28;20603;-70
2022/07/24 03:52:11;;;;;;;1.73;1.63;;;14.10;99.90;;;;;;5013856;28;20179;-71
2022/07/24 03:54:36;;;;;;;1.90;1.40;;;14.10;99.90;;;;;;5012332;28;20192;-70
2022/07/24 03:57:02;;;;;;;4.80;2.00;;;14.20;99.90;;;;;;5013183;28;20252;-71
2022/07/24 03:59:28;;;;;;;1.57;1.43;;;14.10;99.90;;;;;;5013124;28;20537;-70
2022/07/24 04:01:53;;;;;;;2.50;1.87;;;14.30;99.90;;;;;;5012945;28;20490;-71
2022/07/24 04:04:19;;;;;;;1.23;1.13;;;14.30;99.90;;;;;;5012729;28;20709;-71
2022/07/24 04:06:45;;;;;;;2.00;1.63;;;14.30;99.90;;;;;;5011501;28;20554;-71
2022/07/24 04:09:10;;;;;;;2.20;2.00;;;14.30;99.90;;;;;;5012877;28;20222;-71
2022/07/24 04:11:36;;;;;;;2.50;2.30;;;14.30;99.90;;;;;;5012660;28;20215;-71
2022/07/24 04:14:01;;;;;;;1.70;1.60;;;14.30;99.90;;;;;;5012755;28;20271;-71
2022/07/24 04:16:28;;;;;;;1.20;1.10;;;14.30;99.90;;;;;;5012557;28;20176;-72
2022/07/24 04:18:53;;;;;;;2.33;1.33;;;14.30;99.90;;;;;;5012697;28;20585;-70
2022/07/24 04:21:19;;;;;;;1.70;1.60;;;14.30;99.90;;;;;;5012448;28;20443;-70
2022/07/24 04:23:44;;;;;;;1.43;1.20;;;14.40;99.90;;;;;;5012524;28;20322;-70
2022/07/24 04:26:10;;;;;;;1.40;1.23;;;14.40;99.90;;;;;;5012447;28;20187;-69
2022/07/24 04:28:36;;;;;;;2.10;1.70;;;14.50;99.90;;;;;;5012469;28;20184;-70
2022/07/24 04:31:02;;;;;;;1.53;1.30;;;14.50;99.90;;;;;;5012317;28;20196;-70
2022/07/24 04:33:27;;;;;;;1.43;1.33;;;14.60;99.90;;;;;;5012229;28;20651;-70
2022/07/24 04:35:53;;;;;;;1.00;0.97;;;14.60;99.90;;;;;;5012097;28;20403;-69
2022/07/24 04:38:18;;;;;;;1.50;1.40;;;14.60;99.90;;;;;;5012293;28;20184;-71
2022/07/24 04:40:44;;;;;;;1.30;1.20;;;14.70;99.90;;;;;;5012336;28;20197;-71
2022/07/24 04:43:10;;;;;;;1.40;1.30;;;14.70;99.90;;;;;;5012079;28;20242;-70
2022/07/24 04:45:35;;;;;;;4.83;1.53;;;14.80;99.90;;;;;;5012033;28;20177;-70
2022/07/24 04:48:01;;;;;;;1.77;1.40;;;14.80;99.90;;;;;;5012532;28;20544;-71
2022/07/24 04:50:27;;;;;;;1.37;1.27;;;14.90;99.90;;;;;;5012243;28;20204;-71
2022/07/24 04:52:52;;;;;;;1.77;1.67;;;14.90;99.90;;;;;;5012163;28;20994;-70
2022/07/24 04:55:18;;;;;;;1.40;1.30;;;15.00;99.90;;;;;;5012165;28;20168;-70
2022/07/24 04:57:43;;;;;;;1.13;1.00;;;15.10;99.90;;;;;;5012115;28;20268;-71
2022/07/24 05:00:12;;;;;;;1.20;1.10;;;15.10;99.90;;;;;;5011979;28;20256;-71
2022/07/24 05:02:38;;;;;;;1.67;1.10;;;15.10;99.90;;;;;;5012018;28;20193;-70
2022/07/24 05:05:06;;;;;;;1.63;1.43;;;15.20;99.90;;;;;;5011775;28;20404;-70
2022/07/24 05:07:31;;;;;;;1.60;1.17;;;15.50;99.90;;;;;;5011801;28;20407;-70
2022/07/24 05:09:57;;;;;;;2.83;1.20;;;15.70;99.90;;;;;;5011772;28;20413;-71
2022/07/24 05:12:24;;;;;;;1.37;1.10;;;15.90;99.90;;;;;;5011648;28;20247;-71
2022/07/24 05:14:49;;;;;;;1.23;1.13;;;16.20;99.90;;;;;;5011834;28;20409;-70
2022/07/24 05:17:15;;;;;;;2.20;1.40;;;16.70;99.90;;;;;;5011911;28;20505;-70
2022/07/24 05:19:41;;;;;;;1.17;0.80;;;17.10;99.90;;;;;;5011691;28;20835;-70
2022/07/24 05:22:07;;;;;;;1.10;1.00;;;17.30;99.90;;;;;;5011728;28;20178;-70
2022/07/24 05:24:33;;;;;;;1.10;0.87;;;17.80;99.90;;;;;;5011296;28;20205;-70
2022/07/24 05:26:58;;;;;;;1.20;0.97;;;18.40;99.90;;;;;;5011399;28;20407;-70
2022/07/24 05:29:24;;;;;;;1.10;1.00;;;17.90;99.90;;;;;;5011541;28;20961;-70
2022/07/24 05:31:51;;;;;;;1.90;1.07;;;18.00;99.90;;;;;;5011462;28;20197;-71
2022/07/24 05:34:17;;;;;;;1.43;0.90;;;19.00;99.90;;;;;;5011515;28;20290;-71
2022/07/24 05:36:42;;;;;;;1.80;1.13;;;19.20;99.90;;;;;;5013449;28;20433;-71
2022/07/24 05:39:08;;;;;;;1.10;1.00;;;18.90;99.90;;;;;;5017995;28;20180;-71
2022/07/24 05:41:33;;;;;;;1.47;0.90;;;19.40;99.90;;;;;;5017965;28;20240;-71
2022/07/24 05:43:59;;;;;;;1.50;1.00;;;19.20;99.90;;;;;;5017933;28;20686;-70
2022/07/24 05:46:24;;;;;;;1.43;0.97;;;20.50;99.90;;;;;;5017811;28;20514;-70
2022/07/24 05:48:50;;;;;;;1.30;1.00;;;21.60;99.90;;;;;;5017817;28;20172;-72
2022/07/24 05:51:15;;;;;;;6.47;1.07;;;22.20;99.90;;;;;;5017745;28;20199;-72
2022/07/24 05:53:41;;;;;;;0.80;0.80;;;22.10;99.90;;;;;;5017862;28;20205;-71
2022/07/24 05:56:07;;;;;;;0.80;0.77;;;23.00;99.90;;;;;;5017873;28;20251;-71
2022/07/24 05:58:32;;;;;;;2.70;1.00;;;22.80;99.90;;;;;;5017948;28;20184;-71
2022/07/24 06:00:58;;;;;;;1.40;1.10;;;22.20;99.90;;;;;;5017838;28;20199;-70
2022/07/24 06:03:23;;;;;;;0.90;0.80;;;21.90;99.90;;;;;;5017469;28;20218;-71
2022/07/24 06:05:49;;;;;;;0.90;0.80;;;21.40;99.90;;;;;;5017761;28;20230;-71
2022/07/24 06:08:15;;;;;;;1.67;0.97;;;20.60;99.90;;;;;;5017982;28;20241;-71
2022/07/24 06:10:40;;;;;;;1.00;0.90;;;20.60;99.90;;;;;;5017949;28;20209;-71
2022/07/24 06:13:06;;;;;;;2.90;1.03;;;21.70;99.90;;;;;;5017726;28;20187;-71
2022/07/24 06:15:32;;;;;;;1.20;1.10;;;22.50;99.90;;;;;;5017723;28;20526;-70
2022/07/24 06:17:58;;;;;;;0.80;0.80;;;22.70;99.90;;;;;;5017632;28;20168;-71
2022/07/24 06:20:24;;;;;;;2.60;1.67;;;21.80;99.90;;;;;;5017671;28;20422;-72
2022/07/24 06:22:50;;;;;;;0.77;0.67;;;20.70;99.90;;;;;;5017658;28;20434;-71
2022/07/24 06:25:17;;;;;;;0.83;0.80;;;20.20;99.90;;;;;;5017529;28;20197;-72
2022/07/24 06:27:47;;;;;;;0.90;0.80;;;20.90;99.90;;;;;;5017749;28;20406;-72
2022/07/24 06:30:21;;;;;;;1.43;1.27;;;22.00;99.90;;;;;;5017587;28;20457;-72
2022/07/24 06:32:48;;;;;;;1.23;0.93;;;22.60;99.90;;;;;;5017597;28;20458;-72
2022/07/24 06:35:14;;;;;;;1.10;0.80;;;24.80;99.60;;;;;;5017867;28;20808;-72
2022/07/24 06:37:40;;;;;;;1.07;0.70;;;23.60;99.20;;;;;;5017521;28;20422;-71
2022/07/24 06:40:06;;;;;;;0.90;0.70;;;24.10;99.30;;;;;;5017748;28;20487;-71
2022/07/24 06:42:32;;;;;;;0.70;0.70;;;24.10;98.10;;;;;;5017441;28;20164;-71
2022/07/24 06:44:57;;;;;;;0.90;0.70;;;24.50;97.00;;;;;;5017584;28;20767;-72
2022/07/24 06:47:24;;;;;;;0.80;0.70;;;23.60;97.80;;;;;;5017424;28;20165;-70
2022/07/24 06:49:50;;;;;;;1.20;0.90;;;24.80;97.00;;;;;;5013143;28;20157;-71
2022/07/24 06:52:15;;;;;;;1.17;0.80;;;25.80;95.40;;;;;;5014469;28;20469;-71
2022/07/24 06:54:41;;;;;;;1.50;1.13;;;25.60;95.20;;;;;;5014094;28;20202;-71
2022/07/24 06:57:07;;;;;;;1.23;0.80;;;24.90;95.40;;;;;;5014313;28;20247;-71
2022/07/24 06:59:33;;;;;;;2.93;1.60;;;25.30;95.60;;;;;;5014253;28;20449;-72
2022/07/24 07:01:58;;;;;;;1.37;1.00;;;25.10;94.70;;;;;;5014423;28;20168;-72
2022/07/24 07:04:24;;;;;;;1.77;0.80;;;24.30;94.80;;;;;;5029581;23;20215;-73
2022/07/24 07:06:49;;;;;;;1.10;0.90;;;24.40;95.60;;;;;;5015624;28;20647;-74
2022/07/24 07:09:15;;;;;;;0.90;0.90;;;24.60;95.10;;;;;;5016652;28;20306;-73
2022/07/24 07:11:40;;;;;;;2.77;1.00;;;25.40;95.50;;;;;;5015656;28;20204;-75
2022/07/24 07:14:06;;;;;;;1.17;0.87;;;25.50;94.30;;;;;;5017388;28;20196;-74
2022/07/24 07:16:32;;;;;;;1.17;0.67;;;27.00;92.20;;;;;;5016299;28;20180;-74
2022/07/24 07:18:57;;;;;;;1.10;1.00;;;25.20;92.70;;;;;;5018750;28;20172;-74
2022/07/24 07:21:23;;;;;;;0.80;0.80;;;24.60;94.20;;;;;;5021967;28;20166;-74
2022/07/24 07:23:48;;;;;;;1.03;0.80;;;25.50;92.40;;;;;;5016025;28;20310;-74
2022/07/24 07:26:14;;;;;;;0.80;0.80;;;26.00;92.60;;;;;;5015220;28;20176;-74
2022/07/24 07:28:40;;;;;;;2.50;0.80;;;25.90;92.60;;;;;;5016285;28;20180;-74
2022/07/24 07:31:05;;;;;;;3.00;0.77;;;25.70;93.00;;;;;;5014470;28;20200;-74
2022/07/24 07:33:31;;;;;;;1.20;1.00;;;25.20;92.80;;;;;;5012686;28;20196;-74
2022/07/24 07:35:56;;;;;;;1.10;0.80;;;24.50;93.90;;;;;;5015295;28;20176;-74
2022/07/24 07:38:22;;;;;;;0.93;0.83;;;26.20;90.90;;;;;;5015998;28;20166;-74
2022/07/24 07:40:47;;;;;;;1.00;0.90;;;26.60;90.10;;;;;;5011407;28;20715;-74
2022/07/24 07:43:13;;;;;;;2.00;1.80;;;26.50;90.10;;;;;;5007915;28;20203;-74
2022/07/24 07:45:39;;;;;;;1.47;0.90;;;27.30;86.80;;;;;;5016726;28;20578;-74
2022/07/24 07:48:04;;;;;;;2.33;1.33;;;27.40;85.90;;;;;;5017402;28;20172;-74
2022/07/24 07:50:30;;;;;;;1.07;0.97;;;26.10;88.70;;;;;;5016367;28;20262;-74
2022/07/24 07:52:56;;;;;;;0.60;0.60;;;27.50;87.00;;;;;;5015257;28;20215;-74
2022/07/24 07:55:21;;;;;;;1.13;1.03;;;28.00;84.40;;;;;;5015763;28;20172;-75
2022/07/24 07:57:47;;;;;;;1.20;0.80;;;26.40;89.00;;;;;;5016115;28;20175;-74
2022/07/24 08:00:13;;;;;;;1.20;0.80;;;27.00;87.00;;;;;;5015055;28;20202;-74
2022/07/24 08:02:39;;;;;;;0.80;0.80;;;28.70;80.40;;;;;;5014221;28;20176;-73
2022/07/24 08:05:05;;;;;;;0.90;0.80;;;26.90;81.70;;;;;;5016118;28;20442;-75
2022/07/24 08:07:31;;;;;;;1.33;0.70;;;27.50;78.90;;;;;;5017076;28;20187;-75
2022/07/24 08:09:57;;;;;;;1.10;1.00;;;26.40;80.80;;;;;;5017554;28;20805;-75
2022/07/24 08:12:23;;;;;;;1.03;0.80;;;26.60;84.60;;;;;;5016416;28;20487;-74
2022/07/24 08:14:48;;;;;;;1.23;0.80;;;27.20;83.40;;;;;;5017309;28;20197;-74
2022/07/24 08:17:14;;;;;;;1.13;0.90;;;27.00;79.60;;;;;;5017764;28;20256;-74
2022/07/24 08:19:40;;;;;;;1.17;0.80;;;27.80;76.30;;;;;;5017488;28;20168;-74
2022/07/24 08:22:05;;;;;;;0.80;0.60;;;27.40;76.90;;;;;;5016264;28;20734;-74
2022/07/24 08:24:32;;;;;;;2.57;1.87;;;26.40;76.10;;;;;;5010523;28;20374;-73
2022/07/24 08:26:58;;;;;;;1.00;0.90;;;25.90;80.70;;;;;;5013703;28;20657;-74
2022/07/24 08:29:25;;;;;;;0.70;0.70;;;25.80;80.70;;;;;;5014524;28;20520;-73
2022/07/24 08:31:51;;;;;;;1.40;1.20;;;26.60;76.80;;;;;;5014176;28;21090;-74
2022/07/24 08:34:16;;;;;;;0.67;0.67;;;27.50;76.20;;;;;;5013072;28;20547;-75
2022/07/24 08:36:45;;;;;;;1.83;0.90;;;27.80;75.00;;;;;;5014351;28;20635;-73
2022/07/24 08:39:15;;;;;;;5.03;4.20;;;27.70;74.40;;;;;;5014962;28;20168;-75
2022/07/24 08:41:41;;;;;;;7.13;6.40;;;27.80;75.60;;;;;;5014838;28;20407;-74
2022/07/24 08:44:08;;;;;;;29.60;26.43;;;27.00;78.70;;;;;;5013919;28;20438;-74
2022/07/24 08:46:37;;;;;;;3.30;3.00;;;28.30;76.00;;;;;;5014009;28;20446;-74
2022/07/24 08:49:06;;;;;;;2.00;0.93;;;29.90;69.80;;;;;;5014752;28;20917;-75
2022/07/24 08:51:35;;;;;;;1.20;1.00;;;26.70;74.10;;;;;;5014670;28;20466;-74
2022/07/24 08:54:02;;;;;;;1.30;1.00;;;27.10;76.50;;;;;;5015889;28;20427;-75
2022/07/24 08:56:28;;;;;;;0.83;0.80;;;26.70;76.90;;;;;;5015246;28;20415;-74
2022/07/24 08:58:54;;;;;;;0.87;0.80;;;26.00;76.50;;;;;;5014456;28;20411;-74
2022/07/24 09:01:20;;;;;;;0.90;0.80;;;27.30;76.30;;;;;;5014887;28;20411;-74
2022/07/24 09:03:47;;;;;;;0.90;0.80;;;27.80;72.00;;;;;;5015571;28;20207;-75
2022/07/24 09:06:14;;;;;;;1.20;1.10;;;28.90;69.90;;;;;;5020353;28;20165;-74
2022/07/24 09:09:00;;;;;;;1.37;1.27;;;27.50;73.30;;;;;;5017416;28;20418;-75
2022/07/24 09:11:28;;;;;;;0.90;0.83;;;28.30;71.30;;;;;;5014823;28;20447;-76
2022/07/24 09:16:43;;;;;;;1.10;1.00;;;28.30;69.50;;;;;;5016216;28;20445;-74
2022/07/24 09:19:09;;;;;;;1.77;1.40;;;27.60;69.40;;;;;;5013703;28;20427;-75
2022/07/24 09:21:38;;;;;;;0.97;0.73;;;28.50;69.90;;;;;;5017827;28;20199;-75
2022/07/24 09:24:21;;;;;;;1.73;0.83;;;27.90;68.90;;;;;;5017954;28;20501;-74
2022/07/24 09:26:57;;;;;;;1.20;0.80;;;28.60;67.60;;;;;;5019573;28;20411;-74
2022/07/24 09:29:25;;;;;;;1.50;1.30;;;27.20;69.50;;;;;;5015973;28;20386;-74
2022/07/24 09:31:59;;;;;;;1.30;1.10;;;26.90;74.00;;;;;;5012252;28;20546;-74
2022/07/24 09:34:27;;;;;;;0.80;0.80;;;27.60;72.60;;;;;;5012344;28;20439;-76
2022/07/24 09:37:06;;;;;;;1.20;1.10;;;28.20;67.30;;;;;;5012488;28;20458;-74
2022/07/24 09:39:35;;;;;;;1.23;1.13;;;26.80;70.90;;;;;;5012633;28;20403;-74
2022/07/24 09:42:03;;;;;;;2.17;1.37;;;28.00;68.60;;;;;;5012569;28;20472;-73
2022/07/24 09:44:32;;;;;;;1.00;0.90;;;27.10;70.20;;;;;;5012458;28;20438;-72
2022/07/24 09:47:00;;;;;;;1.80;1.43;;;26.60;72.80;;;;;;5010764;28;20423;-73
2022/07/24 09:49:27;;;;;;;1.50;1.40;;;27.10;74.70;;;;;;5014040;28;20491;-74
2022/07/24 09:52:07;;;;;;;1.97;1.30;;;27.80;70.20;;;;;;5014402;28;20451;-73
2022/07/24 09:54:35;;;;;;;1.00;0.80;;;27.80;71.00;;;;;;5012083;28;20426;-74
2022/07/24 09:57:22;;;;;;;1.40;1.30;;;27.30;70.20;;;;;;5012609;28;20426;-73
2022/07/24 09:59:57;;;;;;;2.30;1.73;;;26.80;73.20;;;;;;5013684;28;20395;-74
2022/07/24 10:02:29;;;;;;;3.00;2.37;;;27.40;72.30;;;;;;5012388;28;20494;-73
2022/07/24 10:04:56;;;;;;;1.67;1.57;;;27.60;70.70;;;;;;5011244;28;20769;-74
2022/07/24 10:07:22;;;;;;;0.93;0.80;;;27.60;68.10;;;;;;5013845;28;20893;-73
2022/07/24 10:09:51;;;;;;;1.67;1.20;;;26.30;70.50;;;;;;5013394;28;20399;-74
2022/07/24 10:12:26;;;;;;;1.23;1.07;;;26.40;73.10;;;;;;5014112;28;20889;-73
2022/07/24 10:14:54;;;;;;;3.80;3.13;;;26.10;72.00;;;;;;5012693;28;20426;-73
2022/07/24 10:17:22;;;;;;;3.77;3.20;;;26.40;73.50;;;;;;5011722;28;20461;-74
2022/07/24 10:19:50;;;;;;;2.90;2.60;;;27.40;71.00;;;;;;5011893;28;20944;-73
2022/07/24 10:22:23;;;;;;;2.90;1.40;;;27.10;71.80;;;;;;5012362;28;20429;-74
2022/07/24 10:24:55;;;;;;;2.47;1.33;;;27.20;70.50;;;;;;5015793;28;20473;-76
2022/07/24 10:27:34;;;;;;;1.30;1.20;;;26.80;71.90;;;;;;5015815;28;20457;-74
2022/07/24 10:30:05;;;;;;;1.70;1.13;;;26.30;74.00;;;;;;5015607;28;20411;-74
2022/07/24 10:32:32;;;;;;;2.20;1.30;;;26.20;74.60;;;;;;5015664;28;20924;-75
2022/07/24 10:35:04;;;;;;;1.93;0.80;;;25.80;74.20;;;;;;5015378;28;20451;-75
2022/07/24 10:37:58;;;;;;;1.87;1.40;;;25.20;76.20;;;;;;5016966;28;20462;-74
2022/07/24 10:40:28;;;;;;;1.73;1.37;;;25.80;75.70;;;;;;5019162;28;20479;-73
2022/07/24 10:43:08;;;;;;;1.63;1.53;;;26.00;78.10;;;;;;5015237;28;20520;-75
2022/07/24 10:45:36;;;;;;;2.07;1.50;;;25.90;76.30;;;;;;5015288;28;20428;-74
2022/07/24 10:48:26;;;;;;;6.27;2.10;;;25.60;78.60;;;;;;5015592;28;20411;-74
2022/07/24 10:51:00;;;;;;;1.47;1.20;;;25.90;76.30;;;;;;5014576;28;20485;-74
2022/07/24 10:53:45;;;;;;;1.27;1.17;;;25.40;77.20;;;;;;5022566;28;20429;-73
2022/07/24 10:56:33;;;;;;;1.47;1.30;;;25.00;77.70;;;;;;5017146;28;20398;-74
2022/07/24 10:59:08;;;;;;;1.10;1.00;;;25.50;78.50;;;;;;5015407;28;20845;-74
2022/07/24 11:01:38;;;;;;;1.30;0.90;;;25.40;76.40;;;;;;5015198;28;20488;-74
2022/07/24 11:04:29;;;;;;;2.83;1.70;;;24.90;79.20;;;;;;5014966;28;20991;-74
2022/07/24 11:07:13;;;;;;;1.23;1.10;;;25.40;79.20;;;;;;5015462;28;20423;-72
2022/07/24 11:09:56;;;;;;;4.60;1.30;;;25.70;77.90;;;;;;5014604;28;20409;-74
2022/07/24 11:12:30;;;;;;;2.30;1.30;;;25.80;79.40;;;;;;5015275;28;20453;-74
2022/07/24 11:17:48;;;;;;;25.27;14.50;;;25.80;77.60;;;;;;5014957;28;20490;-73
2022/07/24 11:20:16;;;;;;;2.90;2.60;;;25.90;77.50;;;;;;5015369;28;20899;-75
2022/07/24 11:22:47;;;;;;;1.23;1.13;;;25.70;76.60;;;;;;5015068;28;20649;-74
2022/07/24 11:25:17;;;;;;;1.10;1.00;;;25.20;77.10;;;;;;5014453;28;20475;-74
2022/07/24 11:27:51;;;;;;;4.10;3.67;;;25.30;77.60;;;;;;5014685;28;20411;-73
2022/07/24 11:30:18;;;;;;;7.70;6.30;;;25.70;76.40;;;;;;5014586;28;20437;-74
2022/07/24 11:32:44;;;;;;;1.70;1.17;;;26.00;76.60;;;;;;5014342;28;20493;-73
2022/07/24 11:35:10;;;;;;;1.47;1.37;;;26.00;74.30;;;;;;5013710;28;20440;-74
2022/07/24 11:37:40;;;;;;;2.20;1.20;;;26.00;75.90;;;;;;5014440;28;20407;-74
2022/07/24 11:40:07;;;;;;;9.07;6.47;;;26.00;76.10;;;;;;5014458;28;20407;-73
2022/07/24 11:42:34;;;;;;;22.30;15.80;;;26.00;77.60;;;;;;5014359;28;20412;-72
2022/07/24 11:45:00;;;;;;;10.23;6.90;;;26.30;77.20;;;;;;5013488;28;20407;-72
2022/07/24 11:47:27;;;;;;;10.07;7.00;;;26.60;75.80;;;;;;5013870;28;20468;-74
2022/07/24 11:49:56;;;;;;;2.40;2.20;;;26.70;74.90;;;;;;5014090;28;20403;-73
2022/07/24 11:52:24;;;;;;;8.97;6.57;;;26.60;73.40;;;;;;5013876;28;20451;-73
2022/07/24 11:54:53;;;;;;;3.50;3.20;;;26.90;72.90;;;;;;5013562;28;20434;-74
2022/07/24 11:57:33;;;;;;;14.50;9.97;;;26.10;74.70;;;;;;5013787;28;20443;-73
2022/07/24 12:00:00;;;;;;;2.90;2.07;;;26.60;73.60;;;;;;5014407;28;20442;-73
2022/07/24 12:02:26;;;;;;;3.77;2.67;;;26.70;73.20;;;;;;5013941;28;20410;-74
2022/07/24 12:04:53;;;;;;;5.03;2.17;;;26.50;74.60;;;;;;5010694;28;20477;-73
2022/07/24 12:07:24;;;;;;;6.47;5.17;;;26.30;73.00;;;;;;5009487;28;20462;-73
2022/07/24 12:09:54;;;;;;;1.30;1.20;;;26.70;73.50;;;;;;5000455;28;20576;-74
2022/07/24 12:12:38;;;;;;;1.67;1.30;;;27.00;71.70;;;;;;5010290;28;20461;-74
2022/07/24 12:15:11;;;;;;;1.33;1.20;;;26.70;73.30;;;;;;5010706;28;20413;-73
2022/07/24 12:18:01;;;;;;;1.40;1.20;;;26.60;73.40;;;;;;5013052;28;21092;-73
2022/07/24 12:20:40;;;;;;;1.33;1.20;;;26.70;74.90;;;;;;5012857;28;20421;-73
2022/07/24 12:23:08;;;;;;;2.80;1.50;;;26.80;73.50;;;;;;5013658;28;20919;-74
2022/07/24 12:25:35;;;;;;;1.20;1.10;;;26.90;74.60;;;;;;5013272;28;20444;-74
2022/07/24 12:28:11;;;;;;;1.93;1.57;;;26.90;73.50;;;;;;5008936;28;20466;-73
2022/07/24 12:30:42;;;;;;;1.80;1.50;;;26.90;73.30;;;;;;4996757;28;20539;-73
2022/07/24 12:33:08;;;;;;;6.00;3.70;;;26.90;72.40;;;;;;5000001;28;20417;-73
2022/07/24 12:35:54;;;;;;;2.03;1.57;;;27.30;72.40;;;;;;5008757;28;20421;-74
2022/07/24 12:38:31;;;;;;;1.53;1.17;;;26.60;71.20;;;;;;5021464;28;20413;-73
2022/07/24 12:41:09;;;;;;;2.83;1.40;;;26.50;70.30;;;;;;5022577;28;20409;-74
2022/07/24 12:43:53;;;;;;;1.63;1.40;;;26.30;71.80;;;;;;5011852;28;20439;-73
2022/07/24 12:46:23;;;;;;;1.30;1.20;;;26.50;73.20;;;;;;5011595;28;20405;-74
2022/07/24 12:49:08;;;;;;;1.50;1.40;;;26.80;73.10;;;;;;5013004;28;20422;-73
2022/07/24 12:51:50;;;;;;;1.87;1.77;;;27.00;71.10;;;;;;5012709;28;20460;-74
2022/07/24 12:54:33;;;;;;;2.03;1.70;;;27.30;70.10;;;;;;5012840;28;20434;-73